MST,Max TemperatureF,Mean TemperatureF,Min TemperatureF,Max Dew PointF,MeanDew PointF,Min DewpointF,Max Humidity, Mean Humidity, Min Humidity, Max Sea Level PressureIn, Mean Sea Level PressureIn, Min Sea Level PressureIn, Max VisibilityMiles, Mean VisibilityMiles, Min VisibilityMiles, Max Wind SpeedMPH, Mean Wind SpeedMPH, Max Gust SpeedMPH,PrecipitationIn, CloudCover, Events, WindDirDegrees
2013-1-1,21,7,-7,11,0,-9,96,82,67,30.68,30.46,30.16,10,10,9,9,4,13,0.00,3,,152
2013-1-2,14,3,-8,7,-2,-11,95,84,73,30.72,30.57,30.31,10,8,0,6,0,7,0.00,5,Fog,156
2013-1-3,20,5,-10,5,-3,-13,87,68,49,30.66,30.57,30.47,10,10,8,7,1,8,0.00,0,,151
2013-1-4,26,10,-7,14,2,-10,87,67,47,30.56,30.44,30.18,10,10,8,6,1,9,0.00,1,,108
2013-1-5,26,13,0,15,8,-2,96,82,68,30.56,30.42,30.25,10,10,7,7,2,7,0.00,1,,153
2013-1-6,34,18,2,20,13,0,91,74,56,30.30,30.17,30.07,10,10,10,16,3,20,0.00,5,,2
2013-1-7,36,26,15,23,18,9,74,62,50,30.09,29.94,29.77,10,10,10,18,5,25,0.00,5,,237
2013-1-8,40,35,30,28,21,16,69,57,44,30.06,30.00,29.86,10,10,10,23,9,31,0.00,5,,243
2013-1-9,40,32,23,25,21,17,75,62,48,30.11,29.90,29.62,10,9,1,24,10,31,0.00,1,,196
2013-1-10,38,23,7,28,18,-3,100,74,48,29.85,29.58,29.49,10,3,0,23,10,30,0.06,8,Fog-Snow,319
2013-1-11,7,0,-7,0,-3,-11,87,75,63,30.32,29.96,29.68,10,4,1,18,8,23,T,7,Snow,326
2013-1-12,5,-8,-21,0,-10,-24,95,86,77,30.48,30.20,29.95,10,6,1,7,2,8,T,6,Snow,144
2013-1-13,5,-7,-20,-2,-13,-24,91,83,75,30.51,30.30,30.04,10,8,2,6,2,7,T,5,Snow,156
2013-1-14,11,-6,-23,6,-6,-26,91,82,73,30.58,30.27,30.01,10,5,0,8,2,9,0.01,6,Fog-Snow,329
2013-1-15,28,15,1,20,11,0,92,80,68,30.60,30.35,30.13,10,6,0,12,4,14,T,6,Snow,334
2013-1-16,39,19,-2,19,4,-5,95,68,40,30.69,30.52,30.32,10,8,2,16,3,21,0.00,0,,144
2013-1-17,27,12,-4,14,3,-8,95,76,57,30.73,30.58,30.40,10,9,2,8,2,12,0.00,0,,142
2013-1-18,48,28,8,14,10,6,83,52,21,30.46,30.26,30.09,10,10,10,17,6,26,0.00,0,,312
2013-1-19,34,18,2,14,5,-3,87,63,38,30.52,30.43,30.29,10,10,7,7,2,9,0.00,0,,108
2013-1-20,42,21,-1,17,6,-4,91,62,32,30.60,30.51,30.41,10,10,9,8,1,9,0.00,0,,65
2013-1-21,41,21,0,17,6,-3,95,64,32,30.53,30.40,30.27,10,10,4,9,2,9,0.00,0,,150
2013-1-22,29,12,-5,13,1,-9,86,66,46,30.45,30.38,30.30,10,10,6,7,2,8,0.00,0,,156
2013-1-23,36,23,9,20,13,5,84,71,58,30.34,30.21,30.01,10,10,1,15,2,16,0.00,2,,164
2013-1-24,41,26,11,27,20,9,88,65,41,30.26,30.11,30.00,10,10,10,15,4,21,0.00,4,,270
2013-1-25,42,26,9,31,23,6,100,77,54,30.30,30.15,29.97,10,9,2,8,2,12,T,7,Snow,134
2013-1-26,45,35,25,31,27,23,100,75,49,29.96,29.81,29.72,10,4,0,18,5,22,0.14,7,Fog-Snow,306
2013-1-27,27,14,1,27,18,-1,100,81,62,30.03,29.87,29.77,10,7,1,9,4,13,0.01,5,Snow,301
2013-1-28,26,11,-5,16,6,-7,91,71,50,30.08,29.97,29.80,10,9,2,10,3,15,0.00,6,,145
2013-1-29,22,16,10,18,14,9,92,86,80,30.21,29.90,29.66,10,3,0,9,2,12,0.05,8,Fog-Snow,6
2013-1-30,34,25,15,25,21,13,84,74,64,30.12,30.06,29.91,10,8,2,20,6,26,T,8,Snow,311
2013-1-31,38,34,29,27,24,21,85,72,59,30.19,30.14,30.10,10,10,10,15,5,20,T,8,,294